Time;durP1;ratioP1;P1;durP2;ratioP2;P2;SDS_P1;SDS_P2;PMS_P1;PMS_P2;Temp;Humidity;BMP_temperature;BMP_pressure;BME280_temperature;BME280_humidity;BME280_pressure;Samples;Min_cycle;Max_cycle;Signal;HPM_P1;HPM_P2
2023/07/17 00:00:57;;;;;;;3.53;3.23;;;21.80;67.30;;;24.26;45.64;101327.91;5055899;28;20293;-58
2023/07/17 00:03:26;;;;;;;5.73;3.13;;;21.70;67.30;;;24.23;45.55;101323.03;5056461;28;20221;-59
2023/07/17 00:05:53;;;;;;;3.10;2.80;;;21.70;67.20;;;24.21;45.68;101325.16;5057077;28;20272;-58
2023/07/17 00:08:20;;;;;;;4.60;3.03;;;21.70;67.30;;;24.19;45.50;101320.03;5057333;28;20190;-60
2023/07/17 00:10:47;;;;;;;4.20;3.10;;;21.70;67.40;;;24.20;45.34;101318.97;5055534;28;20567;-54
2023/07/17 00:13:14;;;;;;;5.93;3.50;;;21.70;67.30;;;24.19;45.62;101314.66;5057024;28;20661;-59
2023/07/17 00:15:41;;;;;;;6.20;3.10;;;21.60;67.20;;;24.18;45.61;101313.00;5056445;28;20200;-54
2023/07/17 00:18:08;;;;;;;3.77;3.40;;;21.60;67.20;;;24.20;45.36;101310.06;5052078;28;20191;-58
2023/07/17 00:20:37;;;;;;;5.27;3.17;;;21.60;67.50;;;24.21;45.79;101317.09;5036391;28;20220;-57
2023/07/17 00:23:04;;;;;;;4.43;3.20;;;21.60;67.40;;;24.18;45.81;101310.31;5037075;28;20289;-58
2023/07/17 00:25:34;;;;;;;4.07;2.97;;;21.60;67.70;;;24.11;45.43;101316.94;5036520;28;20207;-59
2023/07/17 00:28:02;;;;;;;3.53;3.20;;;21.60;67.70;;;24.10;45.70;101313.44;5036420;28;20194;-58
2023/07/17 00:30:29;;;;;;;5.97;3.40;;;21.60;68.00;;;24.05;46.36;101309.84;5036031;28;20214;-59
2023/07/17 00:32:56;;;;;;;4.90;3.37;;;21.50;67.90;;;23.98;46.23;101315.44;5042730;28;20273;-57
2023/07/17 00:35:23;;;;;;;3.77;3.23;;;21.50;68.10;;;23.95;46.17;101313.22;5056256;28;20259;-58
2023/07/17 00:37:51;;;;;;;6.27;3.30;;;21.50;68.10;;;23.95;46.26;101315.91;5056275;28;20190;-57
2023/07/17 00:40:18;;;;;;;5.50;3.20;;;21.50;68.10;;;23.94;46.04;101319.66;5055593;28;20636;-64
2023/07/17 00:42:45;;;;;;;5.97;3.17;;;21.50;68.20;;;23.93;46.23;101315.34;5039534;28;20214;-58
2023/07/17 00:45:12;;;;;;;4.73;3.10;;;21.40;68.20;;;23.92;46.22;101324.47;5055422;28;20237;-57
2023/07/17 00:47:39;;;;;;;5.83;3.43;;;21.40;68.40;;;23.86;46.39;101314.72;5055029;28;20190;-57
2023/07/17 00:50:08;;;;;;;5.43;3.33;;;21.40;68.60;;;23.81;46.29;101309.25;5050270;28;20218;-57
2023/07/17 00:52:40;;;;;;;3.33;2.80;;;21.40;68.60;;;23.78;46.58;101308.94;5034957;28;20214;-57
2023/07/17 00:55:09;;;;;;;3.83;3.50;;;21.30;68.80;;;23.78;46.62;101307.06;5036198;28;20218;-58
2023/07/17 00:57:36;;;;;;;4.63;3.77;;;21.30;68.90;;;23.78;46.89;101301.69;5034812;28;20278;-55
2023/07/17 01:00:05;;;;;;;4.90;3.03;;;21.30;68.90;;;23.76;46.81;101301.13;5035624;28;20225;-57
2023/07/17 01:02:33;;;;;;;5.60;3.70;;;21.30;69.80;;;23.76;46.61;101306.50;5035959;28;20187;-56
2023/07/17 01:05:00;;;;;;;3.50;3.10;;;21.30;68.90;;;23.75;46.57;101312.94;5036102;28;20651;-56
2023/07/17 01:07:27;;;;;;;4.00;2.90;;;21.20;68.80;;;23.77;46.43;101312.69;5034711;28;20202;-57
2023/07/17 01:09:54;;;;;;;3.17;2.40;;;21.30;68.80;;;23.81;46.37;101306.56;5035184;28;20306;-58
2023/07/17 01:12:23;;;;;;;5.83;2.93;;;21.20;68.80;;;23.84;46.32;101313.34;5035591;28;20682;-58
2023/07/17 01:14:50;;;;;;;3.77;2.90;;;21.20;68.90;;;23.84;46.30;101306.09;5037564;28;20269;-59
2023/07/17 01:17:17;;;;;;;5.10;3.27;;;21.30;68.70;;;23.85;46.59;101315.75;5055425;28;20217;-57
2023/07/17 01:19:44;;;;;;;4.50;2.93;;;21.30;68.70;;;23.81;46.22;101314.66;5055235;28;20271;-57
2023/07/17 01:22:21;;;;;;;3.60;2.90;;;21.30;68.50;;;23.79;46.32;101330.22;5050841;28;20290;-58
2023/07/17 01:24:49;;;;;;;3.47;3.00;;;21.30;68.60;;;23.79;46.02;101324.84;5035862;28;20227;-58
2023/07/17 01:27:18;;;;;;;3.67;3.17;;;21.30;68.60;;;23.75;46.48;101329.06;5035917;28;20286;-54
2023/07/17 01:29:46;;;;;;;5.40;3.33;;;21.20;68.60;;;23.68;46.45;101339.16;5035135;28;20212;-55
2023/07/17 01:32:13;;;;;;;3.77;3.00;;;21.20;68.80;;;23.64;46.76;101335.34;5035362;28;20286;-57
2023/07/17 01:34:41;;;;;;;4.00;3.33;;;21.20;68.90;;;23.61;47.00;101327.78;5035260;28;20601;-59
2023/07/17 01:37:08;;;;;;;5.07;3.00;;;21.10;69.00;;;23.58;46.73;101339.03;5035063;28;20536;-57
2023/07/17 01:39:35;;;;;;;4.30;3.17;;;21.10;69.00;;;23.60;46.85;101347.66;5038712;28;20218;-58
2023/07/17 01:42:05;;;;;;;4.70;2.90;;;21.10;69.00;;;23.59;46.94;101351.41;5034869;28;20210;-59
2023/07/17 01:44:32;;;;;;;4.43;3.40;;;21.10;69.40;;;23.50;47.10;101347.50;5050424;28;20238;-56
2023/07/17 01:46:59;;;;;;;3.43;3.07;;;21.00;69.30;;;23.46;47.33;101341.78;5055127;28;20218;-58
2023/07/17 01:49:26;;;;;;;6.27;3.83;;;21.00;69.50;;;23.47;47.09;101342.59;5054763;28;20296;-58
2023/07/17 01:51:53;;;;;;;3.30;2.97;;;21.00;69.60;;;23.44;47.30;101343.91;5054575;28;20196;-60
2023/07/17 01:54:20;;;;;;;4.03;3.20;;;21.00;69.60;;;23.42;47.17;101337.16;5054956;28;20273;-59
2023/07/17 01:56:47;;;;;;;3.80;3.07;;;21.00;69.80;;;23.39;47.48;101334.97;5041377;28;20701;-59
2023/07/17 01:59:16;;;;;;;5.57;3.37;;;20.90;69.70;;;23.36;47.21;101340.81;5034477;28;20529;-58
2023/07/17 02:01:43;;;;;;;6.33;3.40;;;20.90;69.80;;;23.38;47.47;101342.22;5034503;28;20277;-56
2023/07/17 02:04:10;;;;;;;4.37;3.50;;;20.90;69.80;;;23.39;47.44;101343.03;5034647;28;20736;-59
2023/07/17 02:06:37;;;;;;;5.37;3.20;;;20.90;70.00;;;23.38;47.20;101338.72;5034579;28;20244;-57
2023/07/17 02:09:04;;;;;;;5.20;3.50;;;20.90;69.80;;;23.31;47.51;101341.53;5034161;28;20257;-57
2023/07/17 02:11:31;;;;;;;5.80;3.20;;;20.80;69.90;;;23.27;47.54;101340.38;5043250;28;20786;-56
2023/07/17 02:13:58;;;;;;;5.73;3.70;;;20.80;70.00;;;23.24;47.71;101346.25;5052741;28;20272;-58
2023/07/17 02:16:27;;;;;;;4.97;3.83;;;20.80;70.10;;;23.19;47.82;101350.72;5054611;28;20669;-59
2023/07/17 02:18:54;;;;;;;9.60;3.87;;;20.80;70.60;;;23.14;47.77;101348.75;5053887;28;20190;-57
2023/07/17 02:21:21;;;;;;;5.87;3.50;;;20.70;70.40;;;23.13;47.99;101340.94;5055166;28;20190;-60
2023/07/17 02:23:48;;;;;;;7.80;4.27;;;20.70;70.60;;;23.14;47.97;101348.75;5053345;28;20218;-58
2023/07/17 02:26:16;;;;;;;6.00;4.10;;;20.70;70.70;;;23.17;47.75;101352.81;5054290;28;20205;-58
2023/07/17 02:28:43;;;;;;;4.53;3.53;;;20.70;70.60;;;23.15;47.72;101344.19;5053463;28;20272;-57
2023/07/17 02:31:10;;;;;;;6.63;3.97;;;20.70;70.60;;;23.15;47.74;101338.81;5066939;28;20720;-58
2023/07/17 02:33:38;;;;;;;8.33;3.90;;;20.70;70.50;;;23.17;47.57;101339.41;5069409;28;20289;-58
2023/07/17 02:36:06;;;;;;;6.13;4.30;;;20.70;70.60;;;23.16;47.75;101340.44;5054006;28;20225;-59
2023/07/17 02:38:33;;;;;;;6.20;4.00;;;20.60;70.50;;;23.10;47.65;101357.53;5053807;28;20251;-59
2023/07/17 02:41:00;;;;;;;4.17;3.70;;;20.60;70.60;;;23.12;47.75;101356.25;5055168;28;20300;-57
2023/07/17 02:43:27;;;;;;;4.47;3.60;;;20.60;70.50;;;23.13;47.82;101354.38;5054750;28;20245;-58
2023/07/17 02:45:54;;;;;;;8.47;3.67;;;20.60;70.70;;;23.09;47.88;101353.22;5055315;28;20257;-58
2023/07/17 02:48:21;;;;;;;6.43;3.93;;;20.60;70.80;;;23.09;47.88;101350.53;5069766;28;20189;-57
2023/07/17 02:50:51;;;;;;;5.53;3.43;;;20.60;70.70;;;23.05;48.02;101349.38;5053402;28;20284;-58
2023/07/17 02:53:18;;;;;;;4.53;3.70;;;20.60;70.80;;;23.02;47.97;101345.31;5053554;28;20204;-58
2023/07/17 02:55:45;;;;;;;6.47;3.70;;;20.50;70.70;;;23.05;47.90;101349.38;5051935;28;20273;-57
2023/07/17 02:58:18;;;;;;;5.27;3.90;;;20.50;70.60;;;23.03;47.78;101346.13;5033555;28;20186;-58
2023/07/17 03:00:46;;;;;;;4.63;3.87;;;20.50;70.80;;;22.98;48.13;101346.84;5033441;28;20293;-58
2023/07/17 03:03:13;;;;;;;4.17;3.60;;;20.50;70.80;;;22.97;48.00;101352.44;5032290;28;20245;-59
2023/07/17 03:05:40;;;;;;;4.57;3.50;;;20.50;70.80;;;22.99;47.96;101351.16;5033753;28;20273;-57
2023/07/17 03:08:09;;;;;;;5.13;3.80;;;20.50;70.80;;;23.01;47.91;101365.16;5033279;28;20293;-59
2023/07/17 03:10:36;;;;;;;4.70;3.53;;;20.50;70.80;;;22.99;48.01;101361.09;5033342;28;20695;-59
2023/07/17 03:13:03;;;;;;;4.37;3.30;;;20.50;71.70;;;22.96;48.23;101366.94;5042309;28;20197;-58
2023/07/17 03:15:30;;;;;;;6.67;3.47;;;20.50;70.90;;;22.96;48.19;101366.94;5053340;28;20685;-57
2023/07/17 03:17:57;;;;;;;6.10;3.83;;;20.50;71.00;;;22.98;48.12;101370.22;5053376;28;20194;-57
2023/07/17 03:20:26;;;;;;;4.90;3.60;;;20.50;70.90;;;22.98;47.90;101378.25;5053104;28;20260;-57
2023/07/17 03:22:53;;;;;;;8.20;3.93;;;20.50;71.10;;;22.92;48.21;101371.19;5053457;28;20252;-57
2023/07/17 03:25:22;;;;;;;7.13;3.80;;;20.50;71.10;;;22.96;48.17;101380.38;5053557;28;20284;-59
2023/07/17 03:27:49;;;;;;;4.13;3.57;;;20.50;72.00;;;22.99;48.13;101371.84;5052558;28;20267;-59
2023/07/17 03:30:16;;;;;;;6.57;4.10;;;20.50;71.10;;;23.02;48.02;101376.72;5053319;28;20301;-56
2023/07/17 03:32:43;;;;;;;4.87;3.40;;;20.50;71.10;;;23.11;47.87;101369.91;5056918;28;20609;-57
2023/07/17 03:35:11;;;;;;;5.83;3.80;;;20.50;71.10;;;23.19;47.65;101377.56;5057085;28;20221;-58
2023/07/17 03:37:38;;;;;;;5.90;3.43;;;20.50;70.90;;;23.20;47.54;101379.22;5057588;28;20217;-58
2023/07/17 03:40:07;;;;;;;5.63;3.73;;;20.60;70.90;;;23.22;47.64;101374.41;5056538;28;20213;-59
2023/07/17 03:42:36;;;;;;;4.63;3.57;;;20.60;70.90;;;23.18;47.73;101376.75;5041014;28;20218;-58
2023/07/17 03:45:05;;;;;;;6.57;3.57;;;20.60;70.70;;;23.19;47.61;101374.88;5037233;28;20737;-60
2023/07/17 03:47:32;;;;;;;3.77;3.30;;;20.60;70.70;;;23.24;47.32;101385.72;5037119;28;20578;-58
2023/07/17 03:49:59;;;;;;;5.03;3.53;;;20.60;70.60;;;23.28;47.35;101381.50;5036534;28;20744;-59
2023/07/17 03:52:26;;;;;;;4.97;3.53;;;20.70;70.70;;;23.31;47.27;101381.84;5037066;28;20199;-57
2023/07/17 03:54:53;;;;;;;5.30;3.27;;;20.70;70.50;;;23.34;47.05;101388.59;5037230;28;20198;-57
2023/07/17 03:57:21;;;;;;;5.60;3.70;;;20.70;70.50;;;23.39;47.53;101388.72;5036985;28;20226;-58
2023/07/17 03:59:53;;;;;;;5.30;3.73;;;20.70;70.60;;;23.41;47.20;101382.03;5036599;28;20633;-59
2023/07/17 04:02:21;;;;;;;5.10;3.80;;;20.80;70.60;;;23.45;47.00;101395.78;5036919;28;20277;-57
2023/07/17 04:04:50;;;;;;;6.77;3.70;;;20.80;70.50;;;23.45;47.10;101393.09;5036910;28;20768;-58
2023/07/17 04:07:17;;;;;;;4.93;3.63;;;20.80;70.50;;;23.39;47.28;101400.25;5037159;28;20605;-58
2023/07/17 04:09:44;;;;;;;5.60;3.43;;;20.80;70.60;;;23.32;47.40;101396.09;5041885;28;20218;-58
2023/07/17 04:12:11;;;;;;;4.07;3.20;;;20.70;70.60;;;23.26;47.46;101394.34;5056596;28;20740;-59
2023/07/17 04:14:39;;;;;;;5.57;3.63;;;20.70;70.60;;;23.24;47.95;101396.47;5055486;28;20194;-58
2023/07/17 04:17:07;;;;;;;5.13;3.53;;;20.70;71.30;;;23.16;47.89;101399.53;5056903;28;20186;-58
2023/07/17 04:19:34;;;;;;;4.13;3.50;;;20.70;71.20;;;23.11;48.07;101399.44;5055037;28;20657;-57
2023/07/17 04:22:02;;;;;;;5.23;4.13;;;20.60;71.10;;;23.12;48.16;101393.03;5056204;28;20269;-59
2023/07/17 04:24:29;;;;;;;4.43;3.67;;;20.60;71.30;;;23.15;47.98;101403.28;5055294;28;20292;-59
2023/07/17 04:26:56;;;;;;;4.10;3.47;;;20.60;71.40;;;23.23;48.10;101405.56;5042592;28;20195;-59
2023/07/17 04:29:23;;;;;;;5.67;3.97;;;20.60;71.70;;;23.24;48.16;101407.22;5050495;28;20690;-63
2023/07/17 04:31:50;;;;;;;8.83;4.33;;;20.60;71.90;;;23.23;48.09;101413.63;5056442;28;20202;-58
2023/07/17 04:34:19;;;;;;;4.13;3.60;;;20.60;71.70;;;23.13;48.48;101410.78;5055839;28;20628;-58
2023/07/17 04:36:46;;;;;;;6.43;4.10;;;20.60;72.00;;;23.08;48.50;101413.38;5056026;28;20280;-59
2023/07/17 04:39:13;;;;;;;5.13;3.67;;;20.60;72.10;;;23.08;48.67;101411.50;5046906;28;20358;-56
2023/07/17 04:41:40;;;;;;;4.17;3.50;;;20.60;72.20;;;23.09;48.80;101410.44;5056093;28;20614;-58
2023/07/17 04:44:08;;;;;;;5.90;3.70;;;20.60;72.60;;;23.07;49.00;101411.72;5055907;28;20279;-57
2023/07/17 04:46:35;;;;;;;4.43;4.00;;;20.60;72.70;;;23.04;49.06;101414.88;5056205;28;20572;-58
2023/07/17 04:49:02;;;;;;;5.87;3.70;;;20.60;72.80;;;23.04;49.04;101423.78;5047954;28;20265;-59
2023/07/17 04:51:31;;;;;;;8.10;4.10;;;20.50;73.00;;;23.03;49.40;101415.97;5035634;28;20596;-56
2023/07/17 04:53:58;;;;;;;5.77;3.83;;;20.50;73.10;;;22.95;49.43;101424.38;5035760;28;20229;-58
2023/07/17 04:56:25;;;;;;;5.80;3.70;;;20.50;73.30;;;22.89;49.44;101429.66;5035889;28;20273;-59
2023/07/17 04:58:52;;;;;;;6.27;4.00;;;20.50;73.30;;;22.90;49.76;101427.78;5035286;28;20271;-58
2023/07/17 05:01:19;;;;;;;4.30;3.80;;;20.40;73.80;;;22.89;49.75;101432.34;5035737;28;20281;-58
2023/07/17 05:03:47;;;;;;;5.50;3.83;;;20.40;73.90;;;22.90;50.03;101425.09;5035905;28;20607;-59
2023/07/17 05:06:14;;;;;;;5.73;3.97;;;20.40;74.20;;;22.87;49.77;101431.78;5035296;28;20201;-57
2023/07/17 05:08:42;;;;;;;5.07;4.07;;;20.40;74.10;;;22.89;49.87;101416.22;5034933;28;20316;-56
2023/07/17 05:11:10;;;;;;;6.60;3.53;;;20.40;74.10;;;22.87;50.13;101418.34;5035460;28;20191;-56
2023/07/17 05:13:37;;;;;;;4.40;4.00;;;20.30;74.30;;;22.81;50.19;101419.31;5035240;28;20201;-59
2023/07/17 05:16:04;;;;;;;5.93;4.20;;;20.40;74.60;;;22.78;50.44;101425.16;5047423;28;20544;-58
2023/07/17 05:18:31;;;;;;;5.40;3.60;;;20.30;74.70;;;22.78;50.40;101419.78;5053556;28;20194;-59
2023/07/17 05:20:58;;;;;;;5.60;4.20;;;20.30;74.80;;;22.80;50.50;101423.03;5054459;28;20222;-56
2023/07/17 05:23:25;;;;;;;7.40;3.87;;;20.30;74.70;;;22.83;50.43;101421.75;5055036;28;20190;-57
2023/07/17 05:25:56;;;;;;;7.10;4.27;;;20.40;75.00;;;22.85;50.50;101417.78;5053149;28;20229;-59
2023/07/17 05:28:24;;;;;;;7.63;4.03;;;20.30;75.20;;;22.81;50.59;101413.94;5035015;28;20640;-58
2023/07/17 05:30:52;;;;;;;7.33;4.37;;;20.30;75.10;;;22.79;50.79;101423.28;5034644;28;20620;-57
2023/07/17 05:33:20;;;;;;;9.10;4.63;;;20.30;75.20;;;22.77;50.53;101418.13;5034896;28;20622;-58
2023/07/17 05:35:47;;;;;;;4.20;3.57;;;20.30;75.20;;;22.77;51.19;101431.56;5042289;28;20280;-58
2023/07/17 05:38:14;;;;;;;5.13;4.23;;;20.30;75.60;;;22.77;50.93;101420.81;5054973;28;20277;-59
2023/07/17 05:40:42;;;;;;;4.80;4.17;;;20.30;75.60;;;22.73;51.09;101417.00;5054251;28;20245;-59
2023/07/17 05:43:10;;;;;;;7.60;4.27;;;20.30;75.80;;;22.72;51.41;101419.91;5053452;28;20276;-58
2023/07/17 05:45:37;;;;;;;6.73;3.97;;;20.30;75.80;;;22.80;51.37;101427.59;5044037;28;20582;-59
2023/07/17 05:48:05;;;;;;;4.60;4.10;;;20.30;76.20;;;22.78;51.32;101427.84;5034725;28;20260;-59
2023/07/17 05:50:32;;;;;;;5.87;3.90;;;20.30;75.90;;;22.79;51.48;101429.47;5033685;28;20553;-58
2023/07/17 05:52:59;;;;;;;5.07;3.70;;;20.40;76.10;;;22.82;51.37;101430.88;5034479;28;20194;-56
2023/07/17 05:55:26;;;;;;;6.67;3.80;;;20.30;76.10;;;22.85;51.38;101425.00;5033972;28;20257;-57
2023/07/17 05:57:53;;;;;;;3.87;3.20;;;20.40;76.10;;;22.97;51.00;101416.91;5034607;28;20222;-58
2023/07/17 06:00:22;;;;;;;6.63;3.67;;;20.40;76.00;;;23.10;50.96;101430.06;5033691;28;20234;-59
2023/07/17 06:02:49;;;;;;;6.20;3.47;;;20.50;76.00;;;23.24;50.38;101424.16;5034365;28;20286;-58
2023/07/17 06:05:17;;;;;;;4.93;3.60;;;20.50;75.60;;;23.31;50.11;101429.38;5034818;28;20297;-58
2023/07/17 06:07:44;;;;;;;4.77;3.47;;;20.60;75.50;;;23.41;49.74;101432.28;5034418;28;20191;-58
2023/07/17 06:10:12;;;;;;;6.73;4.43;;;20.70;75.40;;;23.53;49.53;101439.22;5034039;28;20223;-58
2023/07/17 06:12:39;;;;;;;6.93;3.97;;;20.70;75.30;;;23.42;49.75;101432.03;5034438;28;20186;-57
2023/07/17 06:15:09;;;;;;;7.23;3.87;;;20.80;74.90;;;23.42;49.79;101432.03;5038863;28;20269;-60
2023/07/17 06:17:38;;;;;;;4.93;3.80;;;20.80;74.60;;;23.51;49.53;101435.94;5054099;28;20276;-58
2023/07/17 06:20:08;;;;;;;6.07;3.53;;;20.90;74.50;;;23.61;49.26;101435.31;5034023;28;20615;-60
2023/07/17 06:22:35;;;;;;;4.67;3.37;;;20.90;74.30;;;23.72;49.07;101436.31;5034360;28;20194;-59
2023/07/17 06:25:05;;;;;;;5.50;4.03;;;21.00;74.20;;;23.70;48.59;101439.22;5033699;28;20210;-59
2023/07/17 06:27:32;;;;;;;6.63;3.73;;;21.00;73.70;;;23.70;48.72;101441.91;5033755;28;20274;-61
2023/07/17 06:29:59;;;;;;;5.83;3.77;;;21.00;73.40;;;23.66;48.51;101443.47;5033247;28;20217;-59
2023/07/17 06:32:26;;;;;;;5.80;3.50;;;21.10;73.00;;;23.78;48.49;101441.50;5037518;28;20239;-59
2023/07/17 06:34:55;;;;;;;5.93;3.43;;;21.20;72.80;;;23.89;48.23;101443.31;5053680;28;20193;-58
2023/07/17 06:37:22;;;;;;;5.37;3.00;;;21.20;72.60;;;23.97;47.41;101444.78;5053698;28;20186;-57
2023/07/17 06:39:49;;;;;;;4.57;3.00;;;21.30;72.10;;;23.83;47.45;101449.66;5053168;28;20296;-60
2023/07/17 06:42:16;;;;;;;5.07;3.50;;;21.30;71.10;;;23.84;47.30;101447.81;5039938;28;20667;-57
2023/07/17 06:44:43;;;;;;;5.43;3.30;;;21.30;70.70;;;23.94;47.09;101451.44;5051508;28;20268;-58
2023/07/17 06:47:11;;;;;;;7.63;3.43;;;21.40;70.80;;;24.06;46.86;101457.59;5053395;28;20727;-59
2023/07/17 06:49:58;;;;;;;7.60;5.33;;;21.40;70.70;;;24.15;46.17;101453.41;5052667;28;20546;-57
2023/07/17 06:52:25;;;;;;;4.93;3.53;;;21.40;70.20;;;24.25;45.97;101458.16;5052593;28;20591;-59
2023/07/17 06:54:52;;;;;;;4.97;2.97;;;21.50;70.10;;;24.31;46.17;101469.81;5053239;28;20182;-60
2023/07/17 06:57:31;;;;;;;5.60;3.43;;;21.50;70.00;;;24.39;45.64;101466.72;5052972;28;20178;-59
2023/07/17 06:59:58;;;;;;;4.93;3.00;;;21.60;69.80;;;24.48;45.76;101463.34;5052559;28;20210;-59
2023/07/17 07:02:25;;;;;;;4.67;2.43;;;21.60;69.40;;;24.55;45.02;101468.53;5052335;28;20198;-58
2023/07/17 07:04:52;;;;;;;5.30;3.40;;;21.70;68.60;;;24.53;44.87;101467.97;5053195;28;20213;-60
2023/07/17 07:07:21;;;;;;;5.33;2.50;;;21.80;67.90;;;24.58;44.20;101478.81;5053034;28;20309;-59
2023/07/17 07:09:48;;;;;;;5.10;2.83;;;21.80;67.80;;;24.62;43.64;101474.56;5052716;28;20274;-60
2023/07/17 07:12:15;;;;;;;5.70;3.03;;;21.90;66.70;;;24.68;43.72;101478.94;5053283;28;20678;-59
2023/07/17 07:14:42;;;;;;;5.20;2.43;;;21.90;66.60;;;24.71;43.21;101473.06;5052756;28;20225;-59
2023/07/17 07:17:09;;;;;;;3.83;1.90;;;21.90;66.30;;;24.79;43.23;101469.97;5052196;28;20221;-60
2023/07/17 07:19:36;;;;;;;7.07;2.57;;;22.00;66.30;;;24.86;43.16;101484.06;5052915;28;20584;-59
2023/07/17 07:22:04;;;;;;;4.30;2.80;;;22.00;66.00;;;24.95;43.26;101481.72;5052278;28;20222;-59
2023/07/17 07:24:33;;;;;;;7.43;4.00;;;22.10;65.90;;;24.96;42.23;101481.47;5052665;28;20202;-60
2023/07/17 07:27:00;;;;;;;6.43;3.47;;;22.10;64.80;;;24.93;42.59;101482.00;5041917;28;20264;-59
2023/07/17 07:29:27;;;;;;;5.93;2.90;;;22.20;65.10;;;24.91;42.85;101484.13;5035784;28;20205;-59
2023/07/17 07:31:54;;;;;;;5.27;2.70;;;22.30;64.70;;;25.03;42.41;101478.59;5052727;28;20954;-60
2023/07/17 07:34:21;;;;;;;4.57;2.70;;;22.30;64.70;;;25.14;42.32;101483.84;5052786;28;20189;-59
2023/07/17 07:36:48;;;;;;;5.60;3.00;;;22.40;64.70;;;25.25;41.79;101490.97;5045496;28;20205;-59
2023/07/17 07:39:15;;;;;;;5.20;3.17;;;22.40;64.10;;;25.36;41.81;101487.34;5032443;28;20500;-59
2023/07/17 07:41:45;;;;;;;3.50;2.50;;;22.50;64.00;;;25.46;41.71;101486.63;5041937;28;20609;-59
2023/07/17 07:44:12;;;;;;;6.00;2.83;;;22.60;63.10;;;25.34;40.75;101486.75;5047288;28;21194;-59
2023/07/17 07:46:39;;;;;;;6.30;2.50;;;22.60;61.20;;;25.18;40.47;101490.38;5053172;28;20244;-58
2023/07/17 07:49:06;;;;;;;4.43;2.77;;;22.60;60.00;;;25.05;40.04;101485.38;5052027;28;20214;-56
2023/07/17 07:51:33;;;;;;;2.80;2.23;;;22.60;59.60;;;25.18;41.02;101493.06;5048134;28;20205;-58
2023/07/17 07:54:01;;;;;;;6.53;2.70;;;22.70;60.60;;;25.33;40.80;101495.94;5033285;28;20524;-59
2023/07/17 07:56:28;;;;;;;5.77;3.13;;;22.70;61.20;;;25.38;40.34;101493.28;5033107;28;20225;-57
2023/07/17 07:58:57;;;;;;;4.27;2.63;;;22.70;61.10;;;25.33;40.62;101490.53;5035944;28;20611;-56
2023/07/17 08:01:24;;;;;;;3.10;2.60;;;22.80;61.10;;;25.48;41.18;101490.72;5049871;28;20202;-59
2023/07/17 08:03:51;;;;;;;4.03;2.60;;;22.80;61.20;;;25.64;40.25;101501.66;5050252;28;20186;-60
2023/07/17 08:06:18;;;;;;;2.53;1.93;;;22.90;60.10;;;25.76;39.07;101502.31;5049715;28;20210;-58
2023/07/17 08:08:46;;;;;;;5.10;3.03;;;22.90;59.50;;;25.90;39.64;101500.81;5047244;28;20247;-61
2023/07/17 08:11:13;;;;;;;3.83;3.20;;;23.00;59.80;;;25.67;38.06;101499.28;5035918;28;20221;-61
2023/07/17 08:13:39;;;;;;;5.33;2.90;;;23.00;57.70;;;25.83;38.43;101508.31;5046107;28;20290;-60
2023/07/17 08:16:08;;;;;;;4.47;2.60;;;23.10;58.10;;;26.29;38.30;101513.03;5049768;28;20273;-60
2023/07/17 08:18:35;;;;;;;5.07;3.00;;;23.30;58.30;;;27.10;37.13;101508.09;5045663;28;20222;-59
2023/07/17 08:21:02;;;;;;;4.20;2.63;;;23.50;57.90;;;28.08;35.41;101505.06;5036287;28;20661;-59
2023/07/17 08:23:30;;;;;;;4.60;2.90;;;23.90;57.50;;;29.27;33.98;101504.19;5049134;28;20201;-60
2023/07/17 08:25:57;;;;;;;5.10;3.00;;;24.40;56.40;;;30.06;32.04;101508.53;5056435;28;20217;-59
2023/07/17 08:28:24;;;;;;;3.17;2.80;;;25.00;55.30;;;31.01;31.16;101514.09;5053920;28;20260;-59
2023/07/17 08:30:52;;;;;;;3.20;2.47;;;25.60;53.90;;;31.44;30.31;101507.53;5035268;28;20302;-61
2023/07/17 08:33:22;;;;;;;3.27;2.40;;;26.20;52.00;;;31.41;29.04;101513.53;5046370;28;20202;-59
2023/07/17 08:35:51;;;;;;;3.30;2.60;;;26.60;49.60;;;31.38;29.53;101514.09;5035674;28;20618;-60
2023/07/17 08:38:18;;;;;;;4.33;2.77;;;26.90;48.80;;;31.13;28.76;101523.44;5046939;28;20661;-59
2023/07/17 08:40:52;;;;;;;4.77;2.73;;;27.00;46.70;;;30.91;28.78;101527.81;5052772;28;20225;-58
2023/07/17 08:43:19;;;;;;;4.80;3.20;;;27.00;46.10;;;31.12;28.73;101518.31;5053561;28;20225;-59
2023/07/17 08:45:47;;;;;;;5.43;2.70;;;27.00;46.00;;;30.97;29.26;101515.78;5037464;28;20235;-58
2023/07/17 08:48:15;;;;;;;5.13;2.90;;;27.10;46.40;;;30.51;28.85;101519.00;5051968;28;20496;-58
2023/07/17 08:50:44;;;;;;;5.67;3.43;;;27.00;45.10;;;29.63;30.69;101522.97;5053861;28;20265;-63
2023/07/17 08:53:12;;;;;;;5.83;3.13;;;26.80;45.60;;;29.88;30.39;101533.69;5055103;28;20662;-59
2023/07/17 08:55:41;;;;;;;6.13;3.20;;;26.60;46.80;;;30.72;29.45;101531.25;5050330;28;20214;-61
2023/07/17 08:58:10;;;;;;;5.80;3.17;;;26.60;47.00;;;31.83;28.79;101521.59;5050688;28;20278;-59
2023/07/17 09:00:39;;;;;;;4.60;3.40;;;26.90;47.30;;;32.58;26.44;101521.44;5039944;28;20679;-59
2023/07/17 09:03:06;;;;;;;4.07;3.10;;;27.20;45.00;;;33.31;26.79;101516.63;5053190;28;20198;-59
2023/07/17 09:05:35;;;;;;;4.17;3.77;;;27.70;45.40;;;34.47;26.03;101524.69;5054759;28;20210;-59
2023/07/17 09:08:04;;;;;;;4.70;3.67;;;28.40;45.20;;;35.23;24.20;101520.63;5045333;28;20218;-58
2023/07/17 09:10:35;;;;;;;5.07;3.27;;;28.90;42.50;;;35.09;24.34;101519.19;5035757;28;20231;-58
2023/07/17 09:13:04;;;;;;;6.00;4.07;;;29.30;40.90;;;34.38;24.48;101525.78;5034884;28;20580;-58
2023/07/17 09:15:33;;;;;;;4.30;3.27;;;29.60;40.30;;;34.03;24.21;101532.97;5042024;28;20190;-57
2023/07/17 09:18:00;;;;;;;5.20;3.33;;;29.50;38.50;;;33.62;24.89;101521.41;5054213;28;20236;-56
2023/07/17 09:20:27;;;;;;;7.27;3.40;;;29.40;38.80;;;33.00;25.13;101529.31;5040607;28;20221;-58
2023/07/17 09:22:58;;;;;;;4.83;3.70;;;29.20;38.50;;;33.20;25.46;101522.63;5034926;28;20237;-60
2023/07/17 09:25:28;;;;;;;5.47;3.70;;;29.00;39.40;;;33.99;24.99;101523.78;5034665;28;20222;-59
2023/07/17 09:27:57;;;;;;;4.70;3.20;;;29.10;39.40;;;34.47;24.36;101523.91;5034342;28;20214;-61
2023/07/17 09:30:26;;;;;;;3.67;3.17;;;29.30;39.50;;;35.14;23.97;101528.03;5033178;28;20207;-59
2023/07/17 09:33:04;;;;;;;6.15;3.22;;;29.60;39.50;;;35.57;23.02;101521.78;5034639;28;20226;-59
2023/07/17 09:35:31;;;;;;;5.10;3.33;;;29.90;38.70;;;35.33;22.87;101535.94;5034195;28;20190;-60
2023/07/17 09:37:58;;;;;;;4.77;3.63;;;30.10;37.10;;;34.37;23.58;101541.41;5034387;28;20278;-60
2023/07/17 09:40:28;;;;;;;4.20;3.53;;;30.00;36.80;;;33.38;24.98;101529.84;5047394;28;20694;-59
2023/07/17 09:42:55;;;;;;;4.10;2.97;;;29.80;37.50;;;32.65;25.88;101527.31;5053466;28;20692;-59
2023/07/17 09:45:24;;;;;;;7.80;3.50;;;29.30;38.30;;;32.41;26.09;101532.91;5054157;28;20643;-58
2023/07/17 09:47:51;;;;;;;5.00;3.47;;;28.90;39.00;;;32.09;26.72;101531.00;5054352;28;20198;-59
2023/07/17 09:50:22;;;;;;;4.97;3.80;;;28.70;39.80;;;31.89;26.49;101535.97;5041365;28;20218;-59
2023/07/17 09:52:51;;;;;;;4.40;3.50;;;28.40;40.10;;;31.64;27.10;101534.44;5042434;28;20208;-58
2023/07/17 09:55:20;;;;;;;5.80;3.80;;;28.30;40.50;;;31.20;27.44;101528.53;5046792;28;20203;-60
2023/07/17 09:57:52;;;;;;;4.80;3.10;;;28.10;40.70;;;30.96;28.03;101547.59;5034003;28;20288;-60
2023/07/17 10:00:22;;;;;;;5.17;3.37;;;27.90;41.40;;;30.93;28.73;101544.66;5037591;28;20321;-60
2023/07/17 10:03:04;;;;;;;8.27;4.43;;;27.70;42.00;;;30.47;29.02;101541.59;5046478;28;20587;-61
2023/07/17 10:05:33;;;;;;;4.20;3.53;;;27.40;42.40;;;31.10;28.31;101545.78;5048936;28;20531;-58
2023/07/17 10:08:06;;;;;;;4.07;3.57;;;27.40;42.70;;;32.06;27.67;101534.34;5033834;28;20273;-59
2023/07/17 10:10:34;;;;;;;5.00;3.40;;;27.50;42.90;;;32.44;26.91;101545.13;5051312;28;20240;-57
2023/07/17 10:13:03;;;;;;;5.83;3.93;;;27.70;42.50;;;32.07;26.72;101538.69;5051723;28;20205;-57
2023/07/17 10:15:31;;;;;;;4.87;3.43;;;27.90;42.10;;;31.45;27.39;101547.28;5053035;28;20232;-57